sensor_id;sensor_type;location;lat;lon;timestamp;P1;durP1;ratioP1;P2;durP2;ratioP2
25913;SDS011;13718;50.922;5.346;2022-12-07T00:01:12;53.50;;;20.67;;
25913;SDS011;13718;50.922;5.346;2022-12-07T00:03:43;42.25;;;20.58;;
25913;SDS011;13718;50.922;5.346;2022-12-07T00:06:10;46.15;;;19.77;;
25913;SDS011;13718;50.922;5.346;2022-12-07T00:08:37;46.30;;;21.33;;
25913;SDS011;13718;50.922;5.346;2022-12-07T00:11:10;44.45;;;20.65;;
25913;SDS011;13718;50.922;5.346;2022-12-07T00:13:38;43.70;;;20.15;;
25913;SDS011;13718;50.922;5.346;2022-12-07T00:16:06;42.78;;;20.30;;
25913;SDS011;13718;50.922;5.346;2022-12-07T00:18:33;48.88;;;21.20;;
25913;SDS011;13718;50.922;5.346;2022-12-07T00:21:03;46.67;;;21.70;;
25913;SDS011;13718;50.922;5.346;2022-12-07T00:26:02;44.10;;;20.95;;
25913;SDS011;13718;50.922;5.346;2022-12-07T00:28:33;43.97;;;20.40;;
25913;SDS011;13718;50.922;5.346;2022-12-07T00:31:06;46.78;;;20.75;;
25913;SDS011;13718;50.922;5.346;2022-12-07T00:33:33;48.22;;;21.98;;
25913;SDS011;13718;50.922;5.346;2022-12-07T00:36:00;42.67;;;21.20;;
25913;SDS011;13718;50.922;5.346;2022-12-07T00:38:27;47.13;;;21.65;;
25913;SDS011;13718;50.922;5.346;2022-12-07T00:40:58;49.05;;;21.80;;
25913;SDS011;13718;50.922;5.346;2022-12-07T00:43:26;45.85;;;21.38;;
25913;SDS011;13718;50.922;5.346;2022-12-07T00:45:52;45.78;;;21.67;;
25913;SDS011;13718;50.922;5.346;2022-12-07T00:48:18;49.17;;;21.95;;
25913;SDS011;13718;50.922;5.346;2022-12-07T00:50:44;49.92;;;22.80;;
25913;SDS011;13718;50.922;5.346;2022-12-07T00:53:10;50.22;;;22.88;;
25913;SDS011;13718;50.922;5.346;2022-12-07T00:55:35;52.80;;;23.35;;
25913;SDS011;13718;50.922;5.346;2022-12-07T00:58:01;49.03;;;23.75;;
25913;SDS011;13718;50.922;5.346;2022-12-07T01:00:27;57.08;;;22.88;;
25913;SDS011;13718;50.922;5.346;2022-12-07T01:02:53;48.30;;;22.65;;
25913;SDS011;13718;50.922;5.346;2022-12-07T01:05:19;51.10;;;22.98;;
25913;SDS011;13718;50.922;5.346;2022-12-07T01:07:44;48.72;;;22.48;;
25913;SDS011;13718;50.922;5.346;2022-12-07T01:10:11;54.47;;;24.05;;
25913;SDS011;13718;50.922;5.346;2022-12-07T01:12:38;54.03;;;23.52;;
25913;SDS011;13718;50.922;5.346;2022-12-07T01:15:04;53.30;;;24.02;;
25913;SDS011;13718;50.922;5.346;2022-12-07T01:17:30;54.95;;;23.75;;
25913;SDS011;13718;50.922;5.346;2022-12-07T01:19:56;45.80;;;23.15;;
25913;SDS011;13718;50.922;5.346;2022-12-07T01:22:21;52.05;;;23.90;;
25913;SDS011;13718;50.922;5.346;2022-12-07T01:24:47;54.40;;;23.08;;
25913;SDS011;13718;50.922;5.346;2022-12-07T01:27:13;52.08;;;23.48;;
25913;SDS011;13718;50.922;5.346;2022-12-07T01:29:38;46.85;;;22.35;;
25913;SDS011;13718;50.922;5.346;2022-12-07T01:32:04;48.28;;;22.63;;
25913;SDS011;13718;50.922;5.346;2022-12-07T01:34:30;52.22;;;23.33;;
25913;SDS011;13718;50.922;5.346;2022-12-07T01:36:55;55.90;;;23.20;;
25913;SDS011;13718;50.922;5.346;2022-12-07T01:39:21;49.83;;;23.40;;
25913;SDS011;13718;50.922;5.346;2022-12-07T01:41:47;48.15;;;22.95;;
25913;SDS011;13718;50.922;5.346;2022-12-07T01:54:47;51.53;;;22.35;;
25913;SDS011;13718;50.922;5.346;2022-12-07T01:57:15;48.42;;;22.50;;
25913;SDS011;13718;50.922;5.346;2022-12-07T01:59:42;46.47;;;22.88;;
25913;SDS011;13718;50.922;5.346;2022-12-07T02:02:12;45.83;;;21.15;;
25913;SDS011;13718;50.922;5.346;2022-12-07T02:04:45;48.85;;;21.73;;
25913;SDS011;13718;50.922;5.346;2022-12-07T02:07:11;51.88;;;23.15;;
25913;SDS011;13718;50.922;5.346;2022-12-07T02:09:37;46.60;;;22.50;;
25913;SDS011;13718;50.922;5.346;2022-12-07T02:12:03;51.38;;;22.15;;
25913;SDS011;13718;50.922;5.346;2022-12-07T02:14:29;44.15;;;22.13;;
25913;SDS011;13718;50.922;5.346;2022-12-07T02:16:59;53.63;;;23.10;;
25913;SDS011;13718;50.922;5.346;2022-12-07T02:19:44;43.90;;;22.00;;
25913;SDS011;13718;50.922;5.346;2022-12-07T02:28:21;48.90;;;22.50;;
25913;SDS011;13718;50.922;5.346;2022-12-07T02:30:58;50.83;;;23.15;;
25913;SDS011;13718;50.922;5.346;2022-12-07T02:33:32;45.70;;;23.05;;
25913;SDS011;13718;50.922;5.346;2022-12-07T02:36:06;47.42;;;22.55;;
25913;SDS011;13718;50.922;5.346;2022-12-07T02:38:38;50.90;;;22.88;;
25913;SDS011;13718;50.922;5.346;2022-12-07T02:43:59;54.05;;;24.02;;
25913;SDS011;13718;50.922;5.346;2022-12-07T02:46:29;52.33;;;23.67;;
25913;SDS011;13718;50.922;5.346;2022-12-07T02:48:58;55.17;;;24.80;;
25913;SDS011;13718;50.922;5.346;2022-12-07T02:51:25;53.72;;;24.13;;
25913;SDS011;13718;50.922;5.346;2022-12-07T02:53:54;53.40;;;23.65;;
25913;SDS011;13718;50.922;5.346;2022-12-07T03:07:21;59.13;;;25.30;;
25913;SDS011;13718;50.922;5.346;2022-12-07T03:10:00;55.13;;;25.52;;
25913;SDS011;13718;50.922;5.346;2022-12-07T03:15:26;60.58;;;25.20;;
25913;SDS011;13718;50.922;5.346;2022-12-07T03:18:04;55.97;;;25.10;;
25913;SDS011;13718;50.922;5.346;2022-12-07T03:20:32;57.70;;;26.63;;
25913;SDS011;13718;50.922;5.346;2022-12-07T03:22:59;60.58;;;26.58;;
25913;SDS011;13718;50.922;5.346;2022-12-07T03:25:24;60.50;;;26.02;;
25913;SDS011;13718;50.922;5.346;2022-12-07T03:27:56;59.00;;;26.50;;
25913;SDS011;13718;50.922;5.346;2022-12-07T03:30:49;59.25;;;26.52;;
25913;SDS011;13718;50.922;5.346;2022-12-07T03:33:26;51.38;;;25.23;;
25913;SDS011;13718;50.922;5.346;2022-12-07T03:36:06;54.17;;;26.73;;
25913;SDS011;13718;50.922;5.346;2022-12-07T03:38:37;60.50;;;26.38;;
25913;SDS011;13718;50.922;5.346;2022-12-07T03:41:31;59.83;;;28.02;;
25913;SDS011;13718;50.922;5.346;2022-12-07T03:43:59;53.83;;;26.63;;
25913;SDS011;13718;50.922;5.346;2022-12-07T03:49:23;68.57;;;27.60;;
25913;SDS011;13718;50.922;5.346;2022-12-07T03:54:48;64.15;;;27.92;;
25913;SDS011;13718;50.922;5.346;2022-12-07T03:57:14;65.20;;;27.95;;
25913;SDS011;13718;50.922;5.346;2022-12-07T03:59:41;70.63;;;29.70;;
25913;SDS011;13718;50.922;5.346;2022-12-07T04:02:08;62.90;;;27.75;;
25913;SDS011;13718;50.922;5.346;2022-12-07T04:04:37;66.68;;;30.27;;
25913;SDS011;13718;50.922;5.346;2022-12-07T04:07:03;66.60;;;27.98;;
25913;SDS011;13718;50.922;5.346;2022-12-07T04:09:29;67.50;;;28.73;;
25913;SDS011;13718;50.922;5.346;2022-12-07T04:11:55;68.88;;;29.27;;
25913;SDS011;13718;50.922;5.346;2022-12-07T04:14:20;61.50;;;27.27;;
25913;SDS011;13718;50.922;5.346;2022-12-07T04:16:50;59.95;;;27.20;;
25913;SDS011;13718;50.922;5.346;2022-12-07T04:19:18;63.03;;;26.90;;
25913;SDS011;13718;50.922;5.346;2022-12-07T04:21:45;57.22;;;26.35;;
25913;SDS011;13718;50.922;5.346;2022-12-07T04:24:12;61.92;;;26.92;;
25913;SDS011;13718;50.922;5.346;2022-12-07T04:26:39;59.70;;;27.10;;
25913;SDS011;13718;50.922;5.346;2022-12-07T04:29:04;59.63;;;26.95;;
25913;SDS011;13718;50.922;5.346;2022-12-07T04:31:30;63.30;;;26.98;;
25913;SDS011;13718;50.922;5.346;2022-12-07T04:33:56;62.35;;;27.77;;
25913;SDS011;13718;50.922;5.346;2022-12-07T04:36:21;63.00;;;27.15;;
25913;SDS011;13718;50.922;5.346;2022-12-07T04:38:47;64.88;;;28.13;;
25913;SDS011;13718;50.922;5.346;2022-12-07T04:41:12;68.93;;;28.60;;
25913;SDS011;13718;50.922;5.346;2022-12-07T04:43:38;69.68;;;29.17;;
25913;SDS011;13718;50.922;5.346;2022-12-07T04:46:04;65.35;;;29.55;;
25913;SDS011;13718;50.922;5.346;2022-12-07T04:48:29;59.85;;;28.83;;
25913;SDS011;13718;50.922;5.346;2022-12-07T04:50:55;65.25;;;28.92;;
25913;SDS011;13718;50.922;5.346;2022-12-07T04:53:21;66.43;;;29.15;;
25913;SDS011;13718;50.922;5.346;2022-12-07T04:55:47;67.53;;;30.02;;
25913;SDS011;13718;50.922;5.346;2022-12-07T04:58:13;69.90;;;29.13;;
25913;SDS011;13718;50.922;5.346;2022-12-07T05:00:39;82.10;;;31.52;;
25913;SDS011;13718;50.922;5.346;2022-12-07T05:03:05;76.03;;;31.52;;
25913;SDS011;13718;50.922;5.346;2022-12-07T05:05:31;75.80;;;31.85;;
25913;SDS011;13718;50.922;5.346;2022-12-07T05:07:56;73.07;;;30.73;;
25913;SDS011;13718;50.922;5.346;2022-12-07T05:10:22;80.43;;;31.25;;
25913;SDS011;13718;50.922;5.346;2022-12-07T05:12:47;71.30;;;30.15;;
25913;SDS011;13718;50.922;5.346;2022-12-07T05:15:13;75.05;;;30.45;;
25913;SDS011;13718;50.922;5.346;2022-12-07T05:17:39;67.88;;;29.20;;
25913;SDS011;13718;50.922;5.346;2022-12-07T05:20:06;70.85;;;29.13;;
25913;SDS011;13718;50.922;5.346;2022-12-07T05:22:32;67.97;;;28.85;;
25913;SDS011;13718;50.922;5.346;2022-12-07T05:24:58;75.85;;;29.80;;
25913;SDS011;13718;50.922;5.346;2022-12-07T05:27:24;72.32;;;29.65;;
25913;SDS011;13718;50.922;5.346;2022-12-07T05:29:50;76.25;;;30.77;;
25913;SDS011;13718;50.922;5.346;2022-12-07T05:32:16;71.10;;;28.83;;
25913;SDS011;13718;50.922;5.346;2022-12-07T05:34:42;75.13;;;30.75;;
25913;SDS011;13718;50.922;5.346;2022-12-07T05:37:07;73.80;;;30.08;;
25913;SDS011;13718;50.922;5.346;2022-12-07T05:39:33;76.05;;;30.88;;
25913;SDS011;13718;50.922;5.346;2022-12-07T05:41:59;81.13;;;30.63;;
25913;SDS011;13718;50.922;5.346;2022-12-07T05:44:40;71.82;;;29.25;;
25913;SDS011;13718;50.922;5.346;2022-12-07T05:47:07;78.38;;;31.33;;
25913;SDS011;13718;50.922;5.346;2022-12-07T05:49:33;73.13;;;31.13;;
25913;SDS011;13718;50.922;5.346;2022-12-07T05:51:59;68.75;;;30.33;;
25913;SDS011;13718;50.922;5.346;2022-12-07T05:54:24;79.57;;;32.53;;
25913;SDS011;13718;50.922;5.346;2022-12-07T05:56:50;71.57;;;31.27;;
25913;SDS011;13718;50.922;5.346;2022-12-07T05:59:16;75.00;;;30.65;;
25913;SDS011;13718;50.922;5.346;2022-12-07T06:01:51;67.22;;;29.98;;
25913;SDS011;13718;50.922;5.346;2022-12-07T06:04:28;72.88;;;29.45;;
25913;SDS011;13718;50.922;5.346;2022-12-07T06:06:55;85.25;;;30.80;;
25913;SDS011;13718;50.922;5.346;2022-12-07T06:09:21;73.63;;;31.35;;
25913;SDS011;13718;50.922;5.346;2022-12-07T06:11:48;74.95;;;31.73;;
25913;SDS011;13718;50.922;5.346;2022-12-07T06:14:32;88.00;;;33.05;;
25913;SDS011;13718;50.922;5.346;2022-12-07T06:16:58;90.18;;;32.55;;
25913;SDS011;13718;50.922;5.346;2022-12-07T06:19:24;89.40;;;32.42;;
25913;SDS011;13718;50.922;5.346;2022-12-07T06:21:49;81.28;;;31.95;;
25913;SDS011;13718;50.922;5.346;2022-12-07T06:24:15;80.25;;;32.40;;
25913;SDS011;13718;50.922;5.346;2022-12-07T06:26:42;75.60;;;31.88;;
25913;SDS011;13718;50.922;5.346;2022-12-07T06:29:08;76.30;;;30.60;;
25913;SDS011;13718;50.922;5.346;2022-12-07T06:31:34;78.85;;;30.67;;
25913;SDS011;13718;50.922;5.346;2022-12-07T06:34:02;75.75;;;31.45;;
25913;SDS011;13718;50.922;5.346;2022-12-07T06:36:32;78.30;;;30.73;;
25913;SDS011;13718;50.922;5.346;2022-12-07T06:38:58;77.30;;;30.23;;
25913;SDS011;13718;50.922;5.346;2022-12-07T06:41:23;72.82;;;30.10;;
25913;SDS011;13718;50.922;5.346;2022-12-07T06:43:49;70.82;;;30.50;;
25913;SDS011;13718;50.922;5.346;2022-12-07T06:46:15;82.63;;;31.85;;
25913;SDS011;13718;50.922;5.346;2022-12-07T06:48:41;81.57;;;30.77;;
25913;SDS011;13718;50.922;5.346;2022-12-07T06:51:08;78.10;;;30.83;;
25913;SDS011;13718;50.922;5.346;2022-12-07T06:53:34;78.75;;;31.67;;
25913;SDS011;13718;50.922;5.346;2022-12-07T06:56:00;77.93;;;31.52;;
25913;SDS011;13718;50.922;5.346;2022-12-07T06:58:26;75.65;;;29.45;;
25913;SDS011;13718;50.922;5.346;2022-12-07T07:00:52;78.60;;;30.35;;
25913;SDS011;13718;50.922;5.346;2022-12-07T07:03:18;78.32;;;30.85;;
25913;SDS011;13718;50.922;5.346;2022-12-07T07:05:44;70.97;;;30.27;;
25913;SDS011;13718;50.922;5.346;2022-12-07T07:08:10;78.35;;;31.50;;
25913;SDS011;13718;50.922;5.346;2022-12-07T07:10:36;77.18;;;30.08;;
25913;SDS011;13718;50.922;5.346;2022-12-07T07:13:02;77.68;;;29.70;;
25913;SDS011;13718;50.922;5.346;2022-12-07T07:15:29;81.63;;;30.70;;
25913;SDS011;13718;50.922;5.346;2022-12-07T07:17:55;76.82;;;29.90;;
25913;SDS011;13718;50.922;5.346;2022-12-07T07:20:20;77.60;;;31.42;;
25913;SDS011;13718;50.922;5.346;2022-12-07T07:22:47;77.03;;;30.08;;
25913;SDS011;13718;50.922;5.346;2022-12-07T07:25:13;81.53;;;31.08;;
25913;SDS011;13718;50.922;5.346;2022-12-07T07:27:39;81.95;;;31.67;;
25913;SDS011;13718;50.922;5.346;2022-12-07T07:30:04;80.75;;;30.85;;
25913;SDS011;13718;50.922;5.346;2022-12-07T07:32:30;84.20;;;30.63;;
25913;SDS011;13718;50.922;5.346;2022-12-07T07:34:56;77.05;;;29.38;;
25913;SDS011;13718;50.922;5.346;2022-12-07T07:37:22;80.07;;;32.05;;
25913;SDS011;13718;50.922;5.346;2022-12-07T07:39:47;79.82;;;31.40;;
25913;SDS011;13718;50.922;5.346;2022-12-07T07:42:13;83.75;;;30.77;;
25913;SDS011;13718;50.922;5.346;2022-12-07T07:44:39;73.03;;;28.98;;
25913;SDS011;13718;50.922;5.346;2022-12-07T07:47:05;88.90;;;31.08;;
25913;SDS011;13718;50.922;5.346;2022-12-07T07:49:31;82.82;;;32.22;;
25913;SDS011;13718;50.922;5.346;2022-12-07T07:51:56;87.78;;;33.35;;
25913;SDS011;13718;50.922;5.346;2022-12-07T07:54:22;93.78;;;31.20;;
25913;SDS011;13718;50.922;5.346;2022-12-07T07:56:47;91.43;;;32.70;;
25913;SDS011;13718;50.922;5.346;2022-12-07T07:59:13;82.95;;;31.73;;
25913;SDS011;13718;50.922;5.346;2022-12-07T08:01:40;79.32;;;30.30;;
25913;SDS011;13718;50.922;5.346;2022-12-07T08:04:05;89.00;;;31.65;;
25913;SDS011;13718;50.922;5.346;2022-12-07T08:06:31;84.53;;;31.75;;
25913;SDS011;13718;50.922;5.346;2022-12-07T08:08:57;96.82;;;30.98;;
25913;SDS011;13718;50.922;5.346;2022-12-07T08:11:23;83.70;;;30.90;;
25913;SDS011;13718;50.922;5.346;2022-12-07T08:13:49;82.63;;;30.20;;
25913;SDS011;13718;50.922;5.346;2022-12-07T08:16:14;85.85;;;30.85;;
25913;SDS011;13718;50.922;5.346;2022-12-07T08:18:41;86.03;;;31.45;;
25913;SDS011;13718;50.922;5.346;2022-12-07T08:21:08;86.35;;;31.23;;
25913;SDS011;13718;50.922;5.346;2022-12-07T08:23:36;85.35;;;31.15;;
25913;SDS011;13718;50.922;5.346;2022-12-07T08:26:03;91.95;;;32.58;;
25913;SDS011;13718;50.922;5.346;2022-12-07T08:28:30;103.82;;;34.30;;
25913;SDS011;13718;50.922;5.346;2022-12-07T08:31:00;98.53;;;33.67;;
25913;SDS011;13718;50.922;5.346;2022-12-07T08:33:26;90.20;;;33.42;;
25913;SDS011;13718;50.922;5.346;2022-12-07T08:35:52;91.07;;;32.78;;
25913;SDS011;13718;50.922;5.346;2022-12-07T08:38:18;94.50;;;35.00;;
25913;SDS011;13718;50.922;5.346;2022-12-07T08:40:44;87.47;;;33.08;;
25913;SDS011;13718;50.922;5.346;2022-12-07T08:43:09;81.70;;;32.03;;
25913;SDS011;13718;50.922;5.346;2022-12-07T08:45:35;86.80;;;33.00;;
25913;SDS011;13718;50.922;5.346;2022-12-07T08:48:06;88.25;;;32.40;;
25913;SDS011;13718;50.922;5.346;2022-12-07T08:50:35;91.32;;;33.08;;
25913;SDS011;13718;50.922;5.346;2022-12-07T08:53:02;89.28;;;33.80;;
25913;SDS011;13718;50.922;5.346;2022-12-07T08:55:29;83.30;;;31.88;;
25913;SDS011;13718;50.922;5.346;2022-12-07T08:57:57;78.68;;;29.95;;
25913;SDS011;13718;50.922;5.346;2022-12-07T09:00:24;79.75;;;30.15;;
25913;SDS011;13718;50.922;5.346;2022-12-07T09:02:50;85.30;;;31.35;;
25913;SDS011;13718;50.922;5.346;2022-12-07T09:05:16;78.45;;;32.10;;
25913;SDS011;13718;50.922;5.346;2022-12-07T09:07:43;74.85;;;30.10;;
25913;SDS011;13718;50.922;5.346;2022-12-07T09:10:11;76.65;;;29.23;;
25913;SDS011;13718;50.922;5.346;2022-12-07T09:12:36;68.43;;;28.15;;
25913;SDS011;13718;50.922;5.346;2022-12-07T09:15:02;70.60;;;29.38;;
25913;SDS011;13718;50.922;5.346;2022-12-07T09:17:31;77.20;;;29.30;;
25913;SDS011;13718;50.922;5.346;2022-12-07T09:19:58;74.75;;;29.75;;
25913;SDS011;13718;50.922;5.346;2022-12-07T09:22:23;69.72;;;29.50;;
25913;SDS011;13718;50.922;5.346;2022-12-07T09:24:49;69.55;;;28.77;;
25913;SDS011;13718;50.922;5.346;2022-12-07T09:27:15;65.13;;;28.55;;
25913;SDS011;13718;50.922;5.346;2022-12-07T09:29:42;62.78;;;26.95;;
25913;SDS011;13718;50.922;5.346;2022-12-07T09:32:08;58.42;;;23.77;;
25913;SDS011;13718;50.922;5.346;2022-12-07T09:34:33;62.53;;;23.75;;
25913;SDS011;13718;50.922;5.346;2022-12-07T09:37:00;56.28;;;22.80;;
25913;SDS011;13718;50.922;5.346;2022-12-07T09:39:27;54.10;;;22.25;;
25913;SDS011;13718;50.922;5.346;2022-12-07T09:41:53;50.72;;;21.02;;
25913;SDS011;13718;50.922;5.346;2022-12-07T09:44:24;45.63;;;18.35;;
25913;SDS011;13718;50.922;5.346;2022-12-07T09:46:51;40.38;;;18.15;;
25913;SDS011;13718;50.922;5.346;2022-12-07T09:49:19;46.65;;;18.17;;
25913;SDS011;13718;50.922;5.346;2022-12-07T09:51:47;38.35;;;17.00;;
25913;SDS011;13718;50.922;5.346;2022-12-07T09:54:22;43.47;;;17.42;;
25913;SDS011;13718;50.922;5.346;2022-12-07T09:56:47;38.83;;;17.17;;
25913;SDS011;13718;50.922;5.346;2022-12-07T09:59:15;47.33;;;16.73;;
25913;SDS011;13718;50.922;5.346;2022-12-07T10:01:43;41.65;;;16.92;;
25913;SDS011;13718;50.922;5.346;2022-12-07T10:04:12;35.25;;;15.13;;
25913;SDS011;13718;50.922;5.346;2022-12-07T10:06:44;35.22;;;14.88;;
25913;SDS011;13718;50.922;5.346;2022-12-07T10:09:15;36.03;;;14.00;;
25913;SDS011;13718;50.922;5.346;2022-12-07T10:11:58;34.05;;;15.30;;
25913;SDS011;13718;50.922;5.346;2022-12-07T10:14:36;36.03;;;13.82;;
25913;SDS011;13718;50.922;5.346;2022-12-07T10:22:44;25.90;;;12.27;;
25913;SDS011;13718;50.922;5.346;2022-12-07T10:25:25;31.10;;;12.90;;
25913;SDS011;13718;50.922;5.346;2022-12-07T10:30:47;30.92;;;13.02;;
25913;SDS011;13718;50.922;5.346;2022-12-07T10:33:36;32.67;;;13.57;;
25913;SDS011;13718;50.922;5.346;2022-12-07T10:38:48;28.73;;;12.88;;
25913;SDS011;13718;50.922;5.346;2022-12-07T10:41:16;33.22;;;14.15;;
25913;SDS011;13718;50.922;5.346;2022-12-07T10:43:52;29.08;;;13.25;;
25913;SDS011;13718;50.922;5.346;2022-12-07T10:54:10;25.48;;;10.98;;
25913;SDS011;13718;50.922;5.346;2022-12-07T10:57:22;25.00;;;10.93;;
25913;SDS011;13718;50.922;5.346;2022-12-07T11:05:20;24.55;;;10.65;;
25913;SDS011;13718;50.922;5.346;2022-12-07T11:18:53;23.52;;;9.02;;
25913;SDS011;13718;50.922;5.346;2022-12-07T11:21:30;21.73;;;8.05;;
25913;SDS011;13718;50.922;5.346;2022-12-07T11:24:04;24.00;;;8.88;;
25913;SDS011;13718;50.922;5.346;2022-12-07T11:29:43;21.27;;;9.40;;
25913;SDS011;13718;50.922;5.346;2022-12-07T11:35:17;19.23;;;9.40;;
25913;SDS011;13718;50.922;5.346;2022-12-07T11:37:40;22.45;;;10.02;;
25913;SDS011;13718;50.922;5.346;2022-12-07T11:40:26;22.45;;;9.57;;
25913;SDS011;13718;50.922;5.346;2022-12-07T11:42:59;19.35;;;8.52;;
25913;SDS011;13718;50.922;5.346;2022-12-07T11:45:45;22.70;;;8.02;;
25913;SDS011;13718;50.922;5.346;2022-12-07T11:48:20;20.17;;;7.45;;
25913;SDS011;13718;50.922;5.346;2022-12-07T11:50:54;19.73;;;7.78;;
25913;SDS011;13718;50.922;5.346;2022-12-07T11:56:00;18.23;;;6.88;;
25913;SDS011;13718;50.922;5.346;2022-12-07T12:03:46;14.80;;;4.68;;
25913;SDS011;13718;50.922;5.346;2022-12-07T12:06:13;14.10;;;4.90;;
25913;SDS011;13718;50.922;5.346;2022-12-07T12:08:40;14.35;;;4.88;;
25913;SDS011;13718;50.922;5.346;2022-12-07T12:11:25;12.48;;;4.53;;
25913;SDS011;13718;50.922;5.346;2022-12-07T12:24:38;12.52;;;3.83;;
25913;SDS011;13718;50.922;5.346;2022-12-07T12:27:07;11.10;;;4.40;;
25913;SDS011;13718;50.922;5.346;2022-12-07T12:29:40;16.00;;;4.03;;
25913;SDS011;13718;50.922;5.346;2022-12-07T12:32:13;10.32;;;3.72;;
25913;SDS011;13718;50.922;5.346;2022-12-07T12:34:57;14.13;;;4.53;;
25913;SDS011;13718;50.922;5.346;2022-12-07T12:42:46;9.88;;;4.03;;
25913;SDS011;13718;50.922;5.346;2022-12-07T12:45:32;13.23;;;4.50;;
25913;SDS011;13718;50.922;5.346;2022-12-07T12:52:57;13.50;;;4.10;;
25913;SDS011;13718;50.922;5.346;2022-12-07T13:00:47;9.93;;;2.72;;
25913;SDS011;13718;50.922;5.346;2022-12-07T13:03:34;8.68;;;2.53;;
25913;SDS011;13718;50.922;5.346;2022-12-07T13:06:17;10.82;;;3.05;;
25913;SDS011;13718;50.922;5.346;2022-12-07T13:08:48;7.40;;;2.53;;
25913;SDS011;13718;50.922;5.346;2022-12-07T13:11:18;8.48;;;2.55;;
25913;SDS011;13718;50.922;5.346;2022-12-07T13:13:56;12.15;;;3.15;;
25913;SDS011;13718;50.922;5.346;2022-12-07T13:16:56;8.68;;;3.20;;
25913;SDS011;13718;50.922;5.346;2022-12-07T13:22:51;13.10;;;2.88;;
25913;SDS011;13718;50.922;5.346;2022-12-07T13:25:12;10.25;;;2.47;;
25913;SDS011;13718;50.922;5.346;2022-12-07T13:27:54;13.43;;;2.70;;
25913;SDS011;13718;50.922;5.346;2022-12-07T13:30:23;12.15;;;2.65;;
25913;SDS011;13718;50.922;5.346;2022-12-07T13:32:56;13.88;;;2.90;;
25913;SDS011;13718;50.922;5.346;2022-12-07T13:35:36;9.95;;;3.00;;
25913;SDS011;13718;50.922;5.346;2022-12-07T13:38:04;9.98;;;2.80;;
25913;SDS011;13718;50.922;5.346;2022-12-07T13:40:39;12.00;;;2.65;;
25913;SDS011;13718;50.922;5.346;2022-12-07T13:43:12;6.38;;;2.22;;
25913;SDS011;13718;50.922;5.346;2022-12-07T13:45:41;8.82;;;2.22;;
25913;SDS011;13718;50.922;5.346;2022-12-07T13:48:24;5.40;;;1.92;;
25913;SDS011;13718;50.922;5.346;2022-12-07T13:50:55;10.02;;;2.50;;
25913;SDS011;13718;50.922;5.346;2022-12-07T13:53:22;9.15;;;2.28;;
25913;SDS011;13718;50.922;5.346;2022-12-07T13:55:48;7.38;;;1.90;;
25913;SDS011;13718;50.922;5.346;2022-12-07T13:58:14;5.15;;;1.40;;
25913;SDS011;13718;50.922;5.346;2022-12-07T14:00:40;5.72;;;1.23;;
25913;SDS011;13718;50.922;5.346;2022-12-07T14:05:42;6.85;;;1.70;;
25913;SDS011;13718;50.922;5.346;2022-12-07T14:10:39;11.80;;;1.85;;
25913;SDS011;13718;50.922;5.346;2022-12-07T14:18:42;7.45;;;2.65;;
25913;SDS011;13718;50.922;5.346;2022-12-07T14:23:36;10.18;;;3.83;;
25913;SDS011;13718;50.922;5.346;2022-12-07T14:28:33;14.65;;;4.20;;
25913;SDS011;13718;50.922;5.346;2022-12-07T14:31:00;13.63;;;4.55;;
25913;SDS011;13718;50.922;5.346;2022-12-07T14:33:27;13.00;;;5.15;;
25913;SDS011;13718;50.922;5.346;2022-12-07T14:35:53;15.48;;;5.50;;
25913;SDS011;13718;50.922;5.346;2022-12-07T14:38:23;12.45;;;5.13;;
25913;SDS011;13718;50.922;5.346;2022-12-07T14:40:50;10.68;;;5.50;;
25913;SDS011;13718;50.922;5.346;2022-12-07T14:43:17;14.27;;;5.90;;
25913;SDS011;13718;50.922;5.346;2022-12-07T14:45:43;17.65;;;5.63;;
25913;SDS011;13718;50.922;5.346;2022-12-07T14:48:13;14.15;;;5.45;;
25913;SDS011;13718;50.922;5.346;2022-12-07T14:50:41;12.55;;;5.35;;
25913;SDS011;13718;50.922;5.346;2022-12-07T14:53:14;12.38;;;5.60;;
25913;SDS011;13718;50.922;5.346;2022-12-07T14:55:42;15.52;;;5.43;;
25913;SDS011;13718;50.922;5.346;2022-12-07T14:58:11;15.20;;;5.40;;
25913;SDS011;13718;50.922;5.346;2022-12-07T15:00:39;12.98;;;4.90;;
25913;SDS011;13718;50.922;5.346;2022-12-07T15:03:05;14.20;;;5.03;;
25913;SDS011;13718;50.922;5.346;2022-12-07T15:05:30;15.88;;;5.30;;
25913;SDS011;13718;50.922;5.346;2022-12-07T15:07:56;11.07;;;4.68;;
25913;SDS011;13718;50.922;5.346;2022-12-07T15:10:23;14.00;;;5.70;;
25913;SDS011;13718;50.922;5.346;2022-12-07T15:12:54;12.60;;;4.82;;
25913;SDS011;13718;50.922;5.346;2022-12-07T15:15:40;14.30;;;5.45;;
25913;SDS011;13718;50.922;5.346;2022-12-07T15:18:06;14.60;;;5.75;;
25913;SDS011;13718;50.922;5.346;2022-12-07T15:20:32;13.93;;;5.63;;
25913;SDS011;13718;50.922;5.346;2022-12-07T15:22:57;12.10;;;4.97;;
25913;SDS011;13718;50.922;5.346;2022-12-07T15:25:23;11.93;;;5.32;;
25913;SDS011;13718;50.922;5.346;2022-12-07T15:27:48;12.98;;;5.75;;
25913;SDS011;13718;50.922;5.346;2022-12-07T15:30:14;16.33;;;5.40;;
25913;SDS011;13718;50.922;5.346;2022-12-07T15:32:39;16.13;;;5.88;;
25913;SDS011;13718;50.922;5.346;2022-12-07T15:35:05;14.05;;;5.68;;
25913;SDS011;13718;50.922;5.346;2022-12-07T15:37:31;10.43;;;5.80;;
25913;SDS011;13718;50.922;5.346;2022-12-07T15:39:57;15.90;;;5.68;;
25913;SDS011;13718;50.922;5.346;2022-12-07T15:42:22;15.48;;;5.80;;
25913;SDS011;13718;50.922;5.346;2022-12-07T15:44:48;13.02;;;5.53;;
25913;SDS011;13718;50.922;5.346;2022-12-07T15:47:28;15.10;;;5.78;;
25913;SDS011;13718;50.922;5.346;2022-12-07T15:49:55;11.82;;;6.28;;
25913;SDS011;13718;50.922;5.346;2022-12-07T15:52:20;13.75;;;6.35;;
25913;SDS011;13718;50.922;5.346;2022-12-07T15:54:46;14.07;;;6.60;;
25913;SDS011;13718;50.922;5.346;2022-12-07T15:57:12;13.32;;;5.78;;
25913;SDS011;13718;50.922;5.346;2022-12-07T15:59:38;14.52;;;5.43;;
25913;SDS011;13718;50.922;5.346;2022-12-07T16:02:04;11.80;;;5.05;;
25913;SDS011;13718;50.922;5.346;2022-12-07T16:04:29;9.10;;;4.80;;
25913;SDS011;13718;50.922;5.346;2022-12-07T16:06:55;11.98;;;4.60;;
25913;SDS011;13718;50.922;5.346;2022-12-07T16:09:21;11.48;;;4.38;;
25913;SDS011;13718;50.922;5.346;2022-12-07T16:11:47;9.13;;;4.60;;
25913;SDS011;13718;50.922;5.346;2022-12-07T16:14:15;11.80;;;4.32;;
25913;SDS011;13718;50.922;5.346;2022-12-07T16:16:40;11.30;;;4.18;;
25913;SDS011;13718;50.922;5.346;2022-12-07T16:19:06;9.07;;;4.15;;
25913;SDS011;13718;50.922;5.346;2022-12-07T16:21:33;8.90;;;4.50;;
25913;SDS011;13718;50.922;5.346;2022-12-07T16:24:00;11.63;;;4.32;;
25913;SDS011;13718;50.922;5.346;2022-12-07T16:26:26;12.32;;;4.38;;
25913;SDS011;13718;50.922;5.346;2022-12-07T16:28:52;9.27;;;4.55;;
25913;SDS011;13718;50.922;5.346;2022-12-07T16:31:19;14.48;;;6.15;;
25913;SDS011;13718;50.922;5.346;2022-12-07T16:33:46;15.38;;;6.65;;
25913;SDS011;13718;50.922;5.346;2022-12-07T16:36:13;15.50;;;5.78;;
25913;SDS011;13718;50.922;5.346;2022-12-07T16:38:41;13.45;;;5.85;;
25913;SDS011;13718;50.922;5.346;2022-12-07T16:41:07;13.13;;;5.50;;
25913;SDS011;13718;50.922;5.346;2022-12-07T16:43:34;13.38;;;5.65;;
25913;SDS011;13718;50.922;5.346;2022-12-07T16:46:00;9.35;;;4.82;;
25913;SDS011;13718;50.922;5.346;2022-12-07T16:48:26;9.60;;;4.90;;
25913;SDS011;13718;50.922;5.346;2022-12-07T16:50:52;11.80;;;5.70;;